createdAt,value
2019-06-01T00:01:01.972Z,6.85
2019-06-01T00:06:11.670Z,9.98
2019-06-01T00:11:20.749Z,7.65
2019-06-01T00:16:25.318Z,8.40
2019-06-01T00:26:56.750Z,8.93
2019-06-01T00:32:01.257Z,8.33
2019-06-01T00:37:06.826Z,9.88
2019-06-01T00:42:16.147Z,9.98
2019-06-01T00:47:20.634Z,8.43
2019-06-01T00:52:24.794Z,9.88
2019-06-01T00:57:28.931Z,8.00
2019-06-01T01:02:40.693Z,12.25
2019-06-01T01:07:45.072Z,8.48
2019-06-01T01:13:08.150Z,7.90
2019-06-01T01:18:13.482Z,9.23
2019-06-01T01:23:18.028Z,7.42
2019-06-01T01:33:28.774Z,8.70
2019-06-01T01:38:34.058Z,8.10
2019-06-01T01:43:38.560Z,9.75
2019-06-01T01:48:47.070Z,10.15
2019-06-01T01:53:52.997Z,8.80
2019-06-01T01:58:58.425Z,11.12
2019-06-01T02:04:03.346Z,10.45
2019-06-01T02:09:17.802Z,9.33
2019-06-01T02:14:22.319Z,10.48
2019-06-01T02:19:26.517Z,11.18
2019-06-01T02:24:34.309Z,9.60
2019-06-01T02:29:38.356Z,8.18
2019-06-01T02:34:42.544Z,9.50
2019-06-01T02:39:46.657Z,11.93
2019-06-01T02:45:23.465Z,10.58
2019-06-01T02:50:28.096Z,9.80
2019-06-01T03:01:21.412Z,10.08
2019-06-01T03:06:28.965Z,12.50
2019-06-01T03:11:39.781Z,8.95
2019-06-01T03:16:50.165Z,9.20
2019-06-01T03:22:00.123Z,12.60
2019-06-01T03:27:06.240Z,11.97
2019-06-01T03:32:33.210Z,9.38
2019-06-01T03:37:17.227Z,8.03
2019-06-01T03:42:22.405Z,9.70
2019-06-01T03:47:26.604Z,7.78
2019-06-01T03:52:33.088Z,13.32
2019-06-01T03:57:38.016Z,12.33
2019-06-01T04:02:42.961Z,15.53
2019-06-01T04:07:52.773Z,11.70
2019-06-01T04:12:58.031Z,11.10
2019-06-01T04:18:02.152Z,8.83
2019-06-01T04:23:12.393Z,10.82
2019-06-01T04:28:16.709Z,16.12
2019-06-01T04:33:25.412Z,14.10
2019-06-01T04:38:42.759Z,12.37
2019-06-01T04:43:47.327Z,16.37
2019-06-01T04:53:57.624Z,17.62
2019-06-01T04:59:02.095Z,9.75
2019-06-01T05:04:11.484Z,10.68
2019-06-01T05:09:15.893Z,10.15
2019-06-01T05:19:28.835Z,11.57
2019-06-01T05:24:35.972Z,9.45
2019-06-01T05:29:40.153Z,8.68
2019-06-01T05:34:47.007Z,10.90
2019-06-01T05:39:53.583Z,10.08
2019-06-01T05:45:00.012Z,6.92
2019-06-01T05:50:07.124Z,10.40
2019-06-01T05:55:12.840Z,8.15
2019-06-01T06:00:21.304Z,9.80
2019-06-01T06:05:25.720Z,7.78
2019-06-01T06:10:29.972Z,6.47
2019-06-01T06:15:34.198Z,9.95
2019-06-01T06:20:38.575Z,6.83
2019-06-01T06:25:46.514Z,5.25
2019-06-01T06:30:50.587Z,5.08
2019-06-01T06:35:54.722Z,6.05
2019-06-01T06:41:02.632Z,5.08
2019-06-01T06:46:08.667Z,5.62
2019-06-01T06:51:15.123Z,7.53
2019-06-01T06:56:22.023Z,6.08
2019-06-01T07:01:28.351Z,4.45
2019-06-01T07:06:35.465Z,3.65
2019-06-01T07:11:44.262Z,5.03
2019-06-01T07:16:48.490Z,5.00
2019-06-01T07:21:54.023Z,7.05
2019-06-01T07:26:58.042Z,5.50
2019-06-01T07:32:02.275Z,2.83
2019-06-01T07:42:13.795Z,6.20
2019-06-01T07:52:24.250Z,4.37
2019-06-01T07:57:31.802Z,2.85
2019-06-01T08:02:39.232Z,2.12
2019-06-01T08:07:43.488Z,3.30
2019-06-01T08:18:15.726Z,2.90
2019-06-01T08:23:22.416Z,4.08
2019-06-01T08:28:26.522Z,3.75
2019-06-01T08:38:36.355Z,2.62
2019-06-01T08:43:44.115Z,4.70
2019-06-01T08:48:51.522Z,6.80
2019-06-01T08:53:58.422Z,5.97
2019-06-01T08:59:04.371Z,6.75
2019-06-01T09:04:10.375Z,5.10
2019-06-01T09:09:14.662Z,3.92
2019-06-01T09:14:19.227Z,5.17
2019-06-01T09:19:25.314Z,4.33
2019-06-01T09:24:31.932Z,3.83
2019-06-01T09:29:39.442Z,2.80
2019-06-01T09:34:43.914Z,2.75
2019-06-01T09:39:49.959Z,2.50
2019-06-01T09:44:54.109Z,3.67
2019-06-01T09:55:02.008Z,1.95
2019-06-01T10:00:09.008Z,3.52
2019-06-01T10:05:13.145Z,4.92
2019-06-01T10:10:17.813Z,4.35
2019-06-01T10:15:26.248Z,1.45
2019-06-01T10:20:34.597Z,4.70
2019-06-01T10:25:39.619Z,2.30
2019-06-01T10:30:43.948Z,1.62
2019-06-01T10:35:49.127Z,2.22
2019-06-01T10:40:55.333Z,3.72
2019-06-01T10:46:02.379Z,4.75
2019-06-01T10:51:06.599Z,3.65
2019-06-01T10:56:10.837Z,4.35
2019-06-01T11:01:18.258Z,2.70
2019-06-01T11:06:36.234Z,2.25
2019-06-01T11:11:36.917Z,2.60
2019-06-01T11:16:55.706Z,2.22
2019-06-01T11:21:54.853Z,3.97
2019-06-01T11:26:58.948Z,2.83
2019-06-01T11:37:07.605Z,4.12
2019-06-01T11:42:11.987Z,5.65
2019-06-01T11:47:38.900Z,3.80
2019-06-01T11:52:45.496Z,4.70
2019-06-01T11:57:53.595Z,1.95
2019-06-01T12:02:58.108Z,3.08
2019-06-01T12:08:02.151Z,2.60
2019-06-01T12:18:12.888Z,2.70
2019-06-01T12:23:17.106Z,5.50
2019-06-01T12:28:21.352Z,3.33
2019-06-01T12:33:27.379Z,2.45
2019-06-01T12:44:39.787Z,3.45
2019-06-01T12:49:44.131Z,2.15
2019-06-01T12:54:49.017Z,2.47
2019-06-01T12:59:56.487Z,3.02
2019-06-01T13:05:06.573Z,3.15
2019-06-01T13:10:33.495Z,2.92
2019-06-01T13:15:39.472Z,4.58
2019-06-01T13:20:43.733Z,2.58
2019-06-01T13:25:48.098Z,1.85
2019-06-01T13:30:55.052Z,2.47
2019-06-01T13:36:02.847Z,2.15
2019-06-01T13:41:06.906Z,2.25
2019-06-01T13:51:40.824Z,2.02
2019-06-01T13:56:45.129Z,2.55
2019-06-01T14:01:51.460Z,4.53
2019-06-01T14:06:56.812Z,2.90
2019-06-01T14:12:00.954Z,1.32
2019-06-01T14:17:05.158Z,2.22
2019-06-01T14:22:13.075Z,1.85
2019-06-01T14:27:17.261Z,1.92
2019-06-01T14:32:23.538Z,4.37
2019-06-01T14:37:27.855Z,2.15
2019-06-01T14:42:32.270Z,5.35
2019-06-01T14:47:37.598Z,1.62
2019-06-01T14:52:42.208Z,2.67
2019-06-01T14:57:48.356Z,1.72
2019-06-01T15:02:54.311Z,2.15
2019-06-01T15:07:59.303Z,2.00
2019-06-01T15:13:05.052Z,3.75
2019-06-01T15:18:12.766Z,3.37
2019-06-01T15:23:20.873Z,2.62
2019-06-01T15:28:25.219Z,2.85
2019-06-01T15:33:33.440Z,2.33
2019-06-01T15:38:39.548Z,3.30
2019-06-01T15:43:45.159Z,2.95
2019-06-01T15:48:49.563Z,3.15
2019-06-01T15:54:01.492Z,1.52
2019-06-01T15:59:26.772Z,2.15
2019-06-01T16:04:31.088Z,3.75
2019-06-01T16:09:42.725Z,2.67
2019-06-01T16:14:42.771Z,1.87
2019-06-01T16:19:58.222Z,2.45
2019-06-01T16:25:02.616Z,3.95
2019-06-01T16:30:09.686Z,2.85
2019-06-01T16:35:19.857Z,2.00
2019-06-01T16:40:24.138Z,2.67
2019-06-01T16:45:50.437Z,3.10
2019-06-01T16:51:07.665Z,3.72
2019-06-01T16:56:12.034Z,5.53
2019-06-01T17:01:16.242Z,4.75
2019-06-01T17:06:20.557Z,2.05
2019-06-01T17:11:29.918Z,5.62
2019-06-01T17:16:37.211Z,2.37
2019-06-01T17:21:41.300Z,3.30
2019-06-01T17:31:54.702Z,2.30
2019-06-01T17:36:58.744Z,3.20
2019-06-01T17:42:04.311Z,2.12
2019-06-01T17:47:09.636Z,2.02
2019-06-01T17:52:14.069Z,1.80
2019-06-01T17:57:19.731Z,3.15
2019-06-01T18:02:23.933Z,4.03
2019-06-01T18:12:52.595Z,2.65
2019-06-01T18:17:57.048Z,5.10
2019-06-01T18:23:02.338Z,2.55
2019-06-01T18:28:07.160Z,4.35
2019-06-01T18:33:15.741Z,3.27
2019-06-01T18:39:11.890Z,2.25
2019-06-01T18:44:16.138Z,2.27
2019-06-01T18:50:19.428Z,3.75
2019-06-01T18:55:27.337Z,2.85
2019-06-01T19:00:30.140Z,3.15
2019-06-01T19:05:54.460Z,2.95
2019-06-01T19:10:58.812Z,3.45
2019-06-01T19:21:09.078Z,10.53
2019-06-01T19:26:17.804Z,3.20
2019-06-01T19:31:21.550Z,3.37
2019-06-01T19:36:52.450Z,3.77
2019-06-01T19:41:57.160Z,4.15
2019-06-01T19:47:01.359Z,3.52
2019-06-01T19:52:05.889Z,7.55
2019-06-01T19:57:12.233Z,5.92
2019-06-01T20:02:28.345Z,3.85
2019-06-01T20:07:22.565Z,3.90
2019-06-01T20:12:26.698Z,3.95
2019-06-01T20:17:30.842Z,3.58
2019-06-01T20:22:41.722Z,3.40
2019-06-01T20:27:46.092Z,3.92
2019-06-01T20:32:50.425Z,5.80
2019-06-01T20:37:54.793Z,7.92
2019-06-01T20:48:02.429Z,5.37
2019-06-01T20:53:10.924Z,5.50
2019-06-01T21:04:22.758Z,4.30
2019-06-01T21:09:27.953Z,4.15
2019-06-01T21:14:50.622Z,5.85
2019-06-01T21:20:28.589Z,4.72
2019-06-01T21:25:30.640Z,5.87
2019-06-01T21:30:34.900Z,7.10
2019-06-01T21:35:39.115Z,5.35
2019-06-01T21:40:43.566Z,9.85
2019-06-01T21:45:49.331Z,10.98
2019-06-01T21:50:58.694Z,7.92
2019-06-01T21:56:04.218Z,6.72
2019-06-01T22:01:08.516Z,7.55
2019-06-01T22:06:12.707Z,10.25
2019-06-01T22:12:17.790Z,11.88
2019-06-01T22:17:25.865Z,6.08
2019-06-01T22:22:31.220Z,5.92
2019-06-01T22:32:39.760Z,8.00
2019-06-01T22:37:45.843Z,8.65
2019-06-01T22:42:53.563Z,7.95
2019-06-01T22:48:01.402Z,12.85
2019-06-01T22:53:05.175Z,16.87
2019-06-01T22:58:09.616Z,8.88
2019-06-01T23:03:34.352Z,10.90
2019-06-01T23:08:38.412Z,10.23
2019-06-01T23:13:53.334Z,9.60
2019-06-01T23:18:51.594Z,11.30
2019-06-01T23:24:16.623Z,10.28
2019-06-01T23:29:26.427Z,10.95
2019-06-01T23:34:30.758Z,10.80
2019-06-01T23:39:37.197Z,10.32
2019-06-01T23:44:41.719Z,22.82
2019-06-01T23:49:45.796Z,10.80
2019-06-01T23:54:49.986Z,13.58
2019-06-01T23:59:54.305Z,11.30
